createdAt,value
2019-04-13T00:00:50.333Z,76.09
2019-04-13T00:03:36.756Z,75.82
2019-04-13T00:06:30.856Z,76.22
2019-04-13T00:09:18.174Z,76.07
2019-04-13T00:12:32.934Z,75.81
2019-04-13T00:15:19.614Z,75.89
2019-04-13T00:18:06.134Z,75.69
2019-04-13T00:20:52.573Z,75.81
2019-04-13T00:23:38.914Z,75.42
2019-04-13T00:26:24.953Z,75.83
2019-04-13T00:29:11.133Z,75.36
2019-04-13T00:31:57.193Z,75.66
2019-04-13T00:34:43.480Z,75.72
2019-04-13T00:37:29.695Z,75.55
2019-04-13T00:40:15.754Z,75.73
2019-04-13T00:43:01.977Z,76.25
2019-04-13T00:45:48.714Z,75.98
2019-04-13T00:48:34.914Z,76.18
2019-04-13T00:51:20.955Z,76.10
2019-04-13T00:54:07.614Z,75.67
2019-04-13T00:56:56.375Z,76.14
2019-04-13T00:59:42.677Z,76.09
2019-04-13T01:02:28.879Z,76.67
2019-04-13T01:05:14.938Z,76.56
2019-04-13T01:08:01.093Z,76.57
2019-04-13T01:10:47.453Z,76.50
2019-04-13T01:13:33.554Z,77.25
2019-04-13T01:16:19.595Z,77.83
2019-04-13T01:19:05.874Z,77.67
2019-04-13T01:21:51.934Z,77.87
2019-04-13T01:24:38.274Z,78.34
2019-04-13T01:27:24.334Z,78.93
2019-04-13T01:30:11.013Z,78.59
2019-04-13T01:32:57.254Z,77.94
2019-04-13T01:35:43.775Z,78.23
2019-04-13T01:38:30.274Z,78.05
2019-04-13T01:41:16.473Z,78.41
2019-04-13T01:44:02.657Z,78.17
2019-04-13T01:46:49.335Z,78.12
2019-04-13T01:49:35.574Z,78.20
2019-04-13T01:52:22.154Z,78.18
2019-04-13T01:55:09.073Z,78.15
2019-04-13T01:57:55.554Z,78.13
2019-04-13T02:00:50.174Z,78.20
2019-04-13T02:03:40.508Z,78.50
2019-04-13T02:06:26.913Z,78.57
2019-04-13T02:09:23.354Z,78.71
2019-04-13T02:12:09.614Z,78.80
2019-04-13T02:14:55.654Z,78.73
2019-04-13T02:17:42.474Z,79.19
2019-04-13T02:20:28.834Z,79.21
2019-04-13T02:23:14.933Z,79.16
2019-04-13T02:26:01.674Z,78.98
2019-04-13T02:28:47.613Z,79.27
2019-04-13T02:31:33.896Z,79.67
2019-04-13T02:34:19.994Z,80.02
2019-04-13T02:37:06.116Z,80.23
2019-04-13T02:39:52.276Z,80.21
2019-04-13T02:42:38.475Z,80.43
2019-04-13T02:45:24.597Z,80.61
2019-04-13T02:48:10.814Z,80.05
2019-04-13T02:50:56.776Z,80.09
2019-04-13T02:53:42.755Z,79.49
2019-04-13T02:56:28.914Z,79.15
2019-04-13T02:59:15.233Z,78.99
2019-04-13T03:02:01.802Z,79.19
2019-04-13T03:04:47.816Z,79.16
2019-04-13T03:07:34.013Z,78.88
2019-04-13T03:10:20.274Z,78.90
2019-04-13T03:13:06.394Z,79.18
2019-04-13T03:16:30.674Z,79.25
2019-04-13T03:19:32.413Z,79.48
2019-04-13T03:22:18.894Z,79.40
2019-04-13T03:25:05.273Z,78.85
2019-04-13T03:27:51.393Z,78.88
2019-04-13T03:30:39.057Z,78.33
2019-04-13T03:33:25.275Z,78.81
2019-04-13T03:36:11.533Z,78.71
2019-04-13T03:38:57.718Z,78.56
2019-04-13T03:41:44.534Z,78.56
2019-04-13T03:44:30.794Z,78.47
2019-04-13T03:47:17.433Z,78.98
2019-04-13T03:50:04.065Z,79.35
2019-04-13T03:52:50.133Z,78.80
2019-04-13T03:55:36.654Z,78.75
2019-04-13T03:58:27.054Z,78.53
2019-04-13T04:01:13.455Z,78.71
2019-04-13T04:03:59.693Z,78.67
2019-04-13T04:06:45.733Z,79.05
2019-04-13T04:09:31.954Z,79.06
2019-04-13T04:12:18.154Z,79.13
2019-04-13T04:15:05.334Z,79.41
2019-04-13T04:17:51.914Z,79.56
2019-04-13T04:20:38.294Z,79.98
2019-04-13T04:23:24.293Z,80.07
2019-04-13T04:26:10.534Z,79.98
2019-04-13T04:28:56.693Z,79.91
2019-04-13T04:31:45.654Z,80.14
2019-04-13T04:34:31.854Z,80.52
2019-04-13T04:37:17.993Z,81.12
2019-04-13T04:40:04.714Z,81.41
2019-04-13T04:42:51.014Z,81.48
2019-04-13T04:45:37.255Z,81.97
2019-04-13T04:48:23.402Z,82.44
2019-04-13T04:51:11.329Z,82.50
2019-04-13T04:53:57.891Z,82.84
2019-04-13T04:56:44.016Z,82.80
2019-04-13T04:59:30.303Z,83.14
2019-04-13T05:02:17.103Z,83.15
2019-04-13T05:05:03.434Z,83.18
2019-04-13T05:07:49.897Z,83.32
2019-04-13T05:10:36.214Z,83.35
2019-04-13T05:13:22.554Z,83.48
2019-04-13T05:16:09.433Z,83.54
2019-04-13T05:18:55.933Z,84.41
2019-04-13T05:21:43.833Z,84.80
2019-04-13T05:24:30.213Z,85.02
2019-04-13T05:27:16.654Z,85.02
2019-04-13T05:30:02.654Z,85.56
2019-04-13T05:32:48.813Z,86.17
2019-04-13T05:35:35.214Z,86.57
2019-04-13T05:38:21.214Z,87.19
2019-04-13T05:41:07.634Z,87.45
2019-04-13T05:43:54.193Z,87.47
2019-04-13T05:46:40.423Z,87.79
2019-04-13T05:49:26.337Z,87.75
2019-04-13T05:52:12.574Z,88.06
2019-04-13T05:54:58.554Z,87.59
2019-04-13T05:57:44.933Z,87.74
2019-04-13T06:00:31.296Z,87.68
2019-04-13T06:03:17.614Z,87.77
2019-04-13T06:06:04.474Z,87.75
2019-04-13T06:08:51.194Z,87.43
2019-04-13T06:11:38.074Z,87.21
2019-04-13T06:14:24.675Z,87.35
2019-04-13T06:17:10.854Z,86.46
2019-04-13T06:19:57.454Z,85.42
2019-04-13T06:22:46.835Z,84.98
2019-04-13T06:25:31.782Z,84.33
2019-04-13T06:28:17.973Z,83.82
2019-04-13T06:31:24.316Z,83.32
2019-04-13T06:34:20.814Z,83.50
2019-04-13T06:37:12.338Z,81.34
2019-04-13T06:39:55.413Z,80.31
2019-04-13T06:42:41.554Z,79.36
2019-04-13T06:45:27.953Z,76.66
2019-04-13T06:48:14.294Z,76.74
2019-04-13T06:51:00.794Z,75.99
2019-04-13T06:53:47.113Z,77.48
2019-04-13T06:56:46.406Z,78.24
2019-04-13T06:59:36.361Z,79.67
2019-04-13T07:02:22.373Z,80.98
2019-04-13T07:05:08.613Z,81.27
2019-04-13T07:08:06.454Z,81.27
2019-04-13T07:11:13.102Z,81.14
2019-04-13T07:14:01.574Z,81.75
2019-04-13T07:16:52.033Z,81.92
2019-04-13T07:19:41.484Z,82.26
2019-04-13T07:22:26.954Z,83.04
2019-04-13T07:25:15.054Z,83.85
2019-04-13T07:28:01.906Z,84.33
2019-04-13T07:30:49.081Z,84.34
2019-04-13T07:33:35.833Z,84.77
2019-04-13T07:36:22.589Z,84.25
2019-04-13T07:39:09.313Z,83.85
2019-04-13T07:41:55.995Z,83.71
2019-04-13T07:44:50.554Z,84.32
2019-04-13T07:48:08.313Z,82.27
2019-04-13T07:51:08.254Z,82.02
2019-04-13T07:53:54.495Z,81.05
2019-04-13T07:56:40.814Z,79.88
2019-04-13T07:59:27.355Z,79.45
2019-04-13T08:02:14.914Z,77.20
2019-04-13T08:05:01.307Z,76.61
2019-04-13T08:07:49.931Z,77.49
2019-04-13T08:10:36.216Z,76.21
2019-04-13T08:13:22.394Z,74.17
2019-04-13T08:16:09.593Z,75.69
2019-04-13T08:19:03.973Z,75.23
2019-04-13T08:21:50.494Z,73.98
2019-04-13T08:24:36.613Z,69.79
2019-04-13T08:27:22.894Z,70.18
2019-04-13T08:30:10.109Z,71.86
2019-04-13T08:32:56.654Z,67.86
2019-04-13T08:35:43.282Z,70.33
2019-04-13T08:38:29.803Z,70.67
2019-04-13T08:41:20.191Z,70.74
2019-04-13T08:44:05.989Z,67.86
2019-04-13T08:46:53.034Z,65.69
2019-04-13T08:49:39.354Z,65.63
2019-04-13T08:52:25.954Z,61.96
2019-04-13T08:55:12.174Z,60.68
2019-04-13T08:57:58.534Z,62.15
2019-04-13T09:00:44.775Z,63.11
2019-04-13T09:03:30.894Z,59.55
2019-04-13T09:06:17.476Z,62.54
2019-04-13T09:09:06.234Z,64.45
2019-04-13T09:11:52.094Z,66.90
2019-04-13T09:14:38.434Z,66.18
2019-04-13T09:17:26.786Z,66.34
2019-04-13T09:20:37.328Z,66.57
2019-04-13T09:23:23.834Z,64.28
2019-04-13T09:26:11.341Z,66.56
2019-04-13T09:28:58.054Z,64.90
2019-04-13T09:31:45.155Z,66.27
2019-04-13T09:34:34.660Z,64.43
2019-04-13T09:37:19.374Z,65.05
2019-04-13T09:40:07.054Z,66.24
2019-04-13T09:42:53.434Z,67.73
2019-04-13T09:45:39.675Z,65.22
2019-04-13T09:48:26.134Z,66.36
2019-04-13T09:51:12.656Z,64.95
2019-04-13T09:53:58.934Z,65.03
2019-04-13T09:56:45.053Z,65.76
2019-04-13T09:59:31.274Z,67.43
2019-04-13T10:02:17.434Z,67.03
2019-04-13T10:05:03.656Z,66.24
2019-04-13T10:07:50.195Z,68.17
2019-04-13T10:10:36.374Z,66.44
2019-04-13T10:13:46.084Z,67.03
2019-04-13T10:16:57.994Z,65.90
2019-04-13T10:19:44.595Z,64.64
2019-04-13T10:22:31.088Z,65.13
2019-04-13T10:25:17.214Z,66.20
2019-04-13T10:28:03.294Z,66.36
2019-04-13T10:30:53.470Z,67.89
2019-04-13T10:33:37.674Z,69.03
2019-04-13T10:36:24.134Z,69.62
2019-04-13T10:39:13.377Z,70.07
2019-04-13T10:41:59.913Z,73.44
2019-04-13T10:44:53.054Z,76.52
2019-04-13T10:48:04.815Z,77.44
2019-04-13T10:50:59.423Z,76.62
2019-04-13T10:53:45.657Z,78.09
2019-04-13T10:56:31.934Z,79.04
2019-04-13T10:59:18.237Z,80.21
2019-04-13T11:02:04.375Z,79.38
2019-04-13T11:04:50.954Z,78.36
2019-04-13T11:07:37.054Z,78.41
2019-04-13T11:10:23.194Z,76.70
2019-04-13T11:13:09.374Z,76.26
2019-04-13T11:15:55.993Z,76.36
2019-04-13T11:18:42.233Z,74.84
2019-04-13T11:21:29.836Z,74.89
2019-04-13T11:24:16.774Z,74.51
2019-04-13T11:27:04.095Z,75.10
2019-04-13T11:29:50.035Z,73.70
2019-04-13T11:32:36.482Z,72.96
2019-04-13T11:35:23.213Z,73.27
2019-04-13T11:38:09.533Z,72.58
2019-04-13T11:41:10.914Z,73.40
2019-04-13T11:44:21.672Z,74.95
2019-04-13T11:47:39.413Z,76.75
2019-04-13T11:50:30.371Z,77.40
2019-04-13T11:53:16.834Z,74.27
2019-04-13T11:56:05.060Z,73.99
2019-04-13T11:58:51.734Z,75.38
2019-04-13T12:01:56.214Z,81.47
2019-04-13T12:04:52.293Z,82.23
2019-04-13T12:07:44.869Z,82.39
2019-04-13T12:10:43.626Z,83.02
2019-04-13T12:13:40.434Z,84.00
2019-04-13T12:16:46.315Z,82.00
2019-04-13T12:19:41.914Z,81.12
2019-04-13T12:22:30.994Z,79.08
2019-04-13T12:25:17.214Z,78.26
2019-04-13T12:28:03.836Z,79.49
2019-04-13T12:30:50.534Z,77.51
2019-04-13T12:33:37.094Z,76.85
2019-04-13T12:36:24.888Z,78.38
2019-04-13T12:39:11.334Z,77.50
2019-04-13T12:42:01.621Z,76.66
2019-04-13T12:44:50.150Z,78.27
2019-04-13T12:47:36.174Z,79.55
2019-04-13T12:50:22.674Z,79.83
2019-04-13T12:53:08.777Z,77.95
2019-04-13T12:55:56.339Z,77.30
2019-04-13T12:58:43.101Z,76.52
2019-04-13T13:01:47.376Z,75.03
2019-04-13T13:04:39.974Z,73.52
2019-04-13T13:07:26.353Z,71.88
2019-04-13T13:10:15.308Z,72.51
2019-04-13T13:13:00.956Z,71.66
2019-04-13T13:15:47.294Z,72.63
2019-04-13T13:18:33.874Z,72.46
2019-04-13T13:21:19.973Z,73.33
2019-04-13T13:24:06.177Z,70.93
2019-04-13T13:26:53.036Z,69.93
2019-04-13T13:29:39.493Z,69.60
2019-04-13T13:32:25.515Z,68.05
2019-04-13T13:35:11.616Z,70.44
2019-04-13T13:37:58.158Z,71.62
2019-04-13T13:40:44.299Z,72.60
2019-04-13T13:43:30.315Z,72.04
2019-04-13T13:46:16.971Z,69.91
2019-04-13T13:49:03.433Z,67.51
2019-04-13T13:51:55.934Z,67.87
2019-04-13T13:54:38.116Z,66.34
2019-04-13T13:57:24.320Z,65.07
2019-04-13T14:00:13.674Z,64.13
2019-04-13T14:02:59.994Z,63.96
2019-04-13T14:05:46.234Z,64.46
2019-04-13T14:08:32.434Z,63.42
2019-04-13T14:11:18.553Z,61.37
2019-04-13T14:14:05.115Z,63.16
2019-04-13T14:16:51.250Z,63.93
2019-04-13T14:19:37.814Z,62.74
2019-04-13T14:22:23.932Z,64.12
2019-04-13T14:25:10.995Z,65.07
2019-04-13T14:27:57.194Z,68.99
2019-04-13T14:30:43.708Z,71.36
2019-04-13T14:33:29.854Z,75.40
2019-04-13T14:36:15.993Z,77.08
2019-04-13T14:39:03.674Z,77.88
2019-04-13T14:41:51.798Z,79.37
2019-04-13T14:44:37.719Z,81.60
2019-04-13T14:47:24.034Z,81.19
2019-04-13T14:50:10.134Z,80.68
2019-04-13T14:52:56.875Z,79.05
2019-04-13T14:55:42.996Z,80.92
2019-04-13T14:58:32.033Z,81.67
2019-04-13T15:01:18.314Z,82.36
2019-04-13T15:04:04.453Z,81.31
2019-04-13T15:06:52.232Z,81.85
2019-04-13T15:09:39.273Z,80.00
2019-04-13T15:12:25.874Z,79.50
2019-04-13T15:15:13.564Z,79.75
2019-04-13T15:18:14.360Z,80.53
2019-04-13T15:21:00.356Z,79.10
2019-04-13T15:23:47.349Z,78.05
2019-04-13T15:26:36.987Z,75.64
2019-04-13T15:29:24.633Z,73.69
2019-04-13T15:32:10.794Z,73.25
2019-04-13T15:34:57.663Z,72.76
2019-04-13T15:37:47.210Z,70.19
2019-04-13T15:40:34.067Z,68.98
2019-04-13T15:43:26.047Z,68.93
2019-04-13T15:46:09.232Z,68.88
2019-04-13T15:48:56.818Z,69.30
2019-04-13T15:51:47.729Z,69.03
2019-04-13T15:54:35.035Z,69.21
2019-04-13T15:57:22.153Z,69.06
2019-04-13T16:00:08.990Z,68.45
2019-04-13T16:02:56.363Z,68.24
2019-04-13T16:05:43.128Z,67.10
2019-04-13T16:08:32.752Z,66.96
2019-04-13T16:11:42.335Z,67.27
2019-04-13T16:14:18.653Z,66.96
2019-04-13T16:17:05.635Z,66.52
2019-04-13T16:19:52.408Z,66.69
2019-04-13T16:22:38.873Z,68.48
2019-04-13T16:25:25.010Z,69.73
2019-04-13T16:28:30.791Z,72.91
2019-04-13T16:31:37.568Z,73.40
2019-04-13T16:34:49.175Z,74.03
2019-04-13T16:37:42.068Z,75.94
2019-04-13T16:40:29.207Z,76.54
2019-04-13T16:43:16.373Z,77.25
2019-04-13T16:46:12.034Z,77.71
2019-04-13T16:49:14.666Z,76.70
2019-04-13T16:52:26.072Z,75.96
2019-04-13T16:55:28.857Z,76.44
2019-04-13T16:58:38.520Z,75.34
2019-04-13T17:01:48.121Z,74.43
2019-04-13T17:04:40.578Z,73.79
2019-04-13T17:07:27.215Z,74.18
2019-04-13T17:10:14.737Z,75.19
2019-04-13T17:13:01.173Z,75.57
2019-04-13T17:15:48.366Z,76.20
2019-04-13T17:18:52.693Z,76.49
2019-04-13T17:22:05.303Z,77.16
2019-04-13T17:25:12.284Z,77.20
2019-04-13T17:28:15.557Z,77.38
2019-04-13T17:31:19.814Z,77.84
2019-04-13T17:34:34.494Z,78.09
2019-04-13T17:37:21.260Z,78.08
2019-04-13T17:40:09.181Z,77.77
2019-04-13T17:43:13.838Z,78.18
2019-04-13T17:46:22.794Z,77.97
2019-04-13T17:49:46.434Z,78.51
2019-04-13T17:52:51.173Z,78.44
2019-04-13T17:55:46.190Z,79.22
2019-04-13T17:58:49.115Z,79.68
2019-04-13T18:01:53.853Z,79.52
2019-04-13T18:05:06.580Z,79.58
2019-04-13T18:08:15.897Z,79.82
2019-04-13T18:11:17.480Z,80.17
2019-04-13T18:14:15.254Z,80.23
2019-04-13T18:17:17.944Z,80.31
2019-04-13T18:20:05.102Z,80.84
2019-04-13T18:22:51.557Z,80.39
2019-04-13T18:25:44.142Z,80.51
2019-04-13T18:28:27.275Z,80.52
2019-04-13T18:31:14.895Z,80.84
2019-04-13T18:34:01.905Z,80.68
2019-04-13T18:36:48.680Z,80.89
2019-04-13T18:39:36.406Z,81.13
2019-04-13T18:42:22.514Z,81.37
2019-04-13T18:45:08.796Z,81.26
2019-04-13T18:47:55.598Z,81.07
2019-04-13T18:50:43.297Z,80.74
2019-04-13T18:53:29.964Z,80.48
2019-04-13T18:56:16.775Z,80.33
2019-04-13T18:59:04.428Z,80.44
2019-04-13T19:01:51.645Z,80.76
2019-04-13T19:04:38.494Z,81.43
2019-04-13T19:07:24.634Z,81.50
2019-04-13T19:10:11.221Z,81.89
2019-04-13T19:13:03.827Z,82.92
2019-04-13T19:15:46.014Z,83.05
2019-04-13T19:18:31.974Z,83.43
2019-04-13T19:21:18.175Z,84.40
2019-04-13T19:24:06.954Z,86.21
2019-04-13T19:26:53.308Z,87.01
2019-04-13T19:29:39.414Z,87.37
2019-04-13T19:32:28.434Z,87.53
2019-04-13T19:35:15.734Z,87.33
2019-04-13T19:38:02.073Z,87.30
2019-04-13T19:40:51.253Z,86.96
2019-04-13T19:43:37.508Z,86.63
2019-04-13T19:46:24.193Z,86.99
2019-04-13T19:49:10.654Z,86.45
2019-04-13T19:52:09.358Z,86.04
2019-04-13T19:54:55.894Z,85.92
2019-04-13T19:57:44.817Z,86.00
2019-04-13T20:00:36.616Z,86.56
2019-04-13T20:03:22.794Z,86.34
2019-04-13T20:06:18.770Z,86.52
2019-04-13T20:09:06.174Z,86.33
2019-04-13T20:11:55.654Z,86.05
2019-04-13T20:14:42.118Z,85.73
2019-04-13T20:17:30.855Z,85.72
2019-04-13T20:20:21.294Z,85.64
2019-04-13T20:23:08.182Z,85.48
2019-04-13T20:25:57.619Z,85.44
2019-04-13T20:28:44.433Z,85.50
2019-04-13T20:31:31.189Z,85.46
2019-04-13T20:34:20.592Z,85.57
2019-04-13T20:37:09.972Z,85.81
2019-04-13T20:40:05.650Z,85.69
2019-04-13T20:42:52.593Z,86.10
2019-04-13T20:45:39.744Z,85.67
2019-04-13T20:48:27.143Z,85.60
2019-04-13T20:51:14.964Z,85.79
2019-04-13T20:54:01.757Z,85.72
2019-04-13T20:56:48.990Z,85.59
2019-04-13T20:59:36.752Z,85.75
2019-04-13T21:02:24.435Z,85.90
2019-04-13T21:05:12.106Z,85.65
2019-04-13T21:07:58.301Z,85.90
2019-04-13T21:10:44.414Z,85.61
2019-04-13T21:13:31.703Z,85.63
2019-04-13T21:16:19.268Z,86.13
2019-04-13T21:19:06.891Z,85.77
2019-04-13T21:21:58.480Z,85.93
2019-04-13T21:24:45.922Z,86.07
2019-04-13T21:27:33.522Z,85.90
2019-04-13T21:30:20.788Z,85.64
2019-04-13T21:33:08.261Z,85.33
2019-04-13T21:35:55.782Z,85.41
2019-04-13T21:38:43.128Z,85.44
2019-04-13T21:41:30.296Z,84.95
2019-04-13T21:44:26.518Z,85.06
2019-04-13T21:47:07.548Z,85.23
2019-04-13T21:49:55.854Z,84.91
2019-04-13T21:52:47.705Z,85.10
2019-04-13T21:55:36.056Z,84.76
2019-04-13T21:58:22.870Z,84.87
2019-04-13T22:01:34.571Z,84.63
2019-04-13T22:04:21.927Z,84.40
2019-04-13T22:07:11.594Z,84.81
2019-04-13T22:09:58.672Z,85.38
2019-04-13T22:12:45.994Z,84.90
2019-04-13T22:15:33.194Z,85.55
2019-04-13T22:18:19.875Z,85.89
2019-04-13T22:21:09.090Z,85.76
2019-04-13T22:23:56.356Z,85.84
2019-04-13T22:26:43.627Z,85.67
2019-04-13T22:29:38.313Z,85.81
2019-04-13T22:32:33.976Z,86.00
2019-04-13T22:35:41.071Z,86.32
2019-04-13T22:38:28.250Z,86.35
2019-04-13T22:41:15.596Z,85.87
2019-04-13T22:44:03.064Z,86.06
2019-04-13T22:46:50.555Z,86.35
2019-04-13T22:50:00.355Z,86.27
2019-04-13T22:53:21.566Z,86.18
2019-04-13T22:56:28.671Z,85.64
2019-04-13T22:59:16.038Z,85.51
2019-04-13T23:02:14.631Z,85.86
2019-04-13T23:05:00.834Z,86.43
2019-04-13T23:07:47.844Z,86.54
2019-04-13T23:10:35.409Z,86.44
2019-04-13T23:13:23.172Z,85.67
2019-04-13T23:16:10.617Z,85.66
2019-04-13T23:18:57.967Z,85.40
2019-04-13T23:21:46.054Z,85.89
2019-04-13T23:24:33.589Z,85.95
2019-04-13T23:27:22.010Z,85.57
2019-04-13T23:30:09.521Z,85.88
2019-04-13T23:32:56.058Z,86.55
2019-04-13T23:35:43.013Z,86.36
2019-04-13T23:38:29.427Z,86.05
2019-04-13T23:41:16.782Z,86.39
2019-04-13T23:44:04.737Z,86.67
2019-04-13T23:46:52.334Z,86.90
2019-04-13T23:49:38.833Z,86.44
2019-04-13T23:52:26.059Z,86.39
2019-04-13T23:55:14.000Z,86.19
2019-04-13T23:58:19.956Z,86.23
